Elk Creek, Wisconsin
Current Conditions -  °F | °C
As of 2:34 PM on Wednesday 26 Nov 2014 (Local Time) from KONA Reporting Station
Light Snow Light Snow  
Wind Chill: 28°   Ceiling: 900
Heat Index: 28°   Visibility: 1.5mi
Dew Point: 25°   Wind: 3mph
Humidity: 86%   Direction: 340°NNW
Pressure: 30.19"   Gusts: NA
Location:  44.4253°N, 91.4821°W
Report Text: KONA 262034Z AUTO 34003KT 1 1/2SM -SN BKN009 OVC014 M02/M04 A3019 RMK AO2
Loading
Personal Weather Stations






























Interactive Weather Map New forecast layout! Learn more

10-Day Weather Forecast

Advertisements
Track Severe Weather on mobile